Terminal Aerodrome Forecast
Issued by NWS Wilmington, NC

Current Version | Previous Version | Text Only | Print | Product List | Glossary On
Versions: 1 2 3 4 5 6 7 8 9 10 11 12 13 14 15
000
FTUS42 KILM 262300
TAFILM
TAF
KILM 262334Z 2700/2724 32011KT P6SM VCSH SCT030 BKN045 OVC110
      TEMPO 2700/2704 -SHRA
     FM270600 32012G18KT P6SM SCT012 BKN020 BKN050
     FM271500 32011KT P6SM FEW015 SCT025 SCT050
     FM272200 30007KT P6SM FEW050=

USA.gov is the U.S. government's official web portal to all federal, state and local government web resources and services.